Tiempo atmosférico en la estación meteorológica de Arganda Del Rey, Madrid (533 m.)



Fecha
DESCASC
Temp. máxima en grados centígrados (hora)
DESCASC
Temp. mínima en grados centígrados (hora)
DESCASC
Temp. media en grados centígrados
DESCASC
Racha de viento máxima en m/sg (hora)
DESCASC
Velocidad máxima media en intervalos de 10 minutos(hora)
DESCASC
Precipitaciones diarias en mm
DESCASC
Precipitaciones de 00:00 a 06:00 en mm
DESCASC
Precipitaciones de 06:00 a 12:00 en mm
DESCASC
Precipitaciones de 12:00 a 18:00 en mm
DESCASC
Precipitaciones de 18:00 a 24:00 en mm
DESCASC
22-01-2020 12.4 (14:30) 5 (23:59) 8.7 8.89 (14:50) 4.72 (00:10) 1.6 0 0.4 1.2 0
21-01-2020 8.5 (14:30) 4.6 (04:50) 6.5 15 (04:20) 8.06 (03:00) 0.8 0 0 0.8 0
20-01-2020 6.7 (13:30) 2.8 (08:20) 4.7 17.22 (08:40) 10.83 (09:20) 0 0 0 0 0
19-01-2020 9.7 (16:30) 2.5 (00:00) 6.1 20 (18:00) 11.67 (18:00) 0.8 0 0.8 0 0
18-01-2020 10.1 (16:40) 4.4 (00:00) 7.3 7.22 (23:30) 3.61 (20:50) 1.8 0 0.6 0.2 1
17-01-2020 13.3 (16:20) 3.2 (00:00) 8.3 8.89 (12:10) 6.11 (12:40) 0 0 0 0 0
16-01-2020 14.8 (16:00) 5.8 (00:00) 10.3 5 (16:10) 3.33 (16:20) 0 0 0 0 0
15-01-2020 9 (15:50) 0 (00:00) 4.5 3.61 (06:20) 2.22 (06:20) 0 0 0 0 0
14-01-2020 10.5 (16:30) -3.8 (-00:0) 3.4 4.44 (14:50) 2.78 (16:50) 0 0 0 0 0
13-01-2020 9.2 (16:30) -3.7 (-00:0) 2.7 4.72 (16:40) 3.33 (16:30) 0 0 0 0 0
12-01-2020 11 (16:40) -3.9 (-00:0) 3.5 2.78 (10:30) 1.67 (10:40) 0 0 0 0 0
11-01-2020 12.5 (16:20) -1.6 (-00:0) 5.4 3.61 (00:10) 2.5 (00:20) 0 0 0 0 0
10-01-2020 12.3 (15:10) -1.1 (-00:0) 5.6 8.89 (13:50) 6.11 (13:50) 0 0 0 0 0
09-01-2020 13.2 (15:30) 0.2 (00:00) 6.7 4.72 (16:00) 3.33 (16:00) 0 0 0 0 0
08-01-2020 16.5 (17:00) -1.3 (-00:0) 7.6 2.78 (11:00) 1.67 (00:10) 0 0 0 0 0
07-01-2020 14.2 (17:10) -2.4 (-00:0) 5.9 2.5 (01:00) 1.39 (00:40) 0 0 0 0 0
06-01-2020 13.7 (17:00) -2.4 (-00:0) 5.6 2.78 (11:50) 1.94 (11:50) 0 0 0 0 0
05-01-2020 11.8 (16:40) -1.8 (-00:0) 5 3.06 (00:50) 1.94 (00:50) 0 0 0 0 0
04-01-2020 12.9 (15:40) -1.1 (-00:0) 5.9 8.89 (12:20) 4.72 (12:50) 0 0 0 0 0
03-01-2020 5.5 (15:00) -1.7 (-00:0) 1.9 3.61 (23:40) 1.94 (23:40) 0.2 0 0.2 0 0
02-01-2020 12.2 (16:50) -1.8 (-00:0) 5.2 2.78 (11:40) 1.67 (11:40) 0 0 0 0 0
01-01-2020 13.3 (17:10) -2.1 (-00:0) 5.6 2.5 (19:30) 1.67 (19:30) 0.2 0 0.2 0 0
31-12-2019 12.8 (16:10) -0.7 (-00:0) 6.1 2.5 (10:10) 1.39 (01:20) 0 0 0 0 0
30-12-2019 -- (--) -- (--) -- -- (--) -- (--) -- 0 0 -- 0
29-12-2019 15.6 (16:30) -1.1 (-00:0) 7.3 3.06 (12:10) 2.5 (12:30) 0 0 0 0 0
28-12-2019 15.7 (17:10) -1.5 (-00:0) 7.1 2.5 (03:20) 1.39 (04:00) 0 0 0 0 0
27-12-2019 16 (17:10) 1.2 (00:00) 8.6 3.06 (12:00) 1.67 (12:00) 0 0 0 0 0
26-12-2019 17.4 (16:00) 2.5 (00:00) 9.9 5 (22:40) 2.78 (22:40) 0 0 0 0 0
25-12-2019 16.6 (16:50) 2.1 (00:00) 9.4 2.78 (11:50) 1.94 (11:50) 0 0 0 0 0

Gráficas

Temp. máximas Temp. mínimas Temp. medias Precipitaciones Rachas de viento máximas Velocidades máximas media en intervalos de 10 minutos

Datos horarios

Fecha y hora oficial Temperatura (ºC) Velocidad del viento (km/h) Dirección del viento Racha (km/h) Dirección de racha Precipitación (mm) Presión (hPa) Tendencia (hPa) Humedad (%)
2020-01-23 23:00:00 -- -- -- -- -- -- -- -- --
2020-01-23 22:00:00 -- -- -- -- -- -- -- -- --
2020-01-23 21:00:00 -- -- -- -- -- -- -- -- --
2020-01-23 20:00:00 -- -- -- -- -- -- -- -- --
2020-01-23 19:00:00 9.3 4 Nordeste 11 Este 0 -- -- 72
2020-01-23 18:00:00 10.3 5 Sudeste 14 Sudeste 0 -- -- 70
2020-01-23 17:00:00 12 5 Sudeste 10 Sudeste 0 -- -- 63
2020-01-23 16:00:00 11.8 3 Noroeste 13 Sudeste 0 -- -- 65
2020-01-23 15:00:00 11.2 6 Sudeste 13 Sudeste 0 -- -- 70
2020-01-23 14:00:00 10.4 4 Nordeste 11 Nordeste 0 -- -- 70
2020-01-23 13:00:00 9.9 5 Sudoeste 9 Sur 0 -- -- 72
2020-01-23 12:00:00 8.2 3 Nordeste 9 Nordeste 0 -- -- 77
2020-01-23 11:00:00 5.4 0 Calma 4 Sudoeste 0 -- -- 83
2020-01-23 10:00:00 3.1 0 Calma 8 Este 0 -- -- 89
2020-01-23 09:00:00 2 4 Este 18 Nordeste 0 -- -- 90
2020-01-23 08:00:00 1.4 6 Nordeste 15 Nordeste 0 -- -- 93
2020-01-23 07:00:00 0.2 0 Calma 8 Nordeste 0 -- -- 91
2020-01-23 06:00:00 1.2 5 Este 9 Este 0 -- -- 90
2020-01-23 05:00:00 1.8 4 Sur 11 Norte 0 -- -- 87
2020-01-23 04:00:00 3 4 Nordeste 11 Norte 0 -- -- 86
2020-01-23 03:00:00 3.7 6 Nordeste 12 Norte 0 -- -- 85
2020-01-23 02:00:00 4 5 Norte 17 Norte 0 -- -- 85
2020-01-23 01:00:00 4.2 10 Nordeste 20 Nordeste 0 -- -- 85
2020-01-23 00:00:00 5 6 Nordeste 14 Norte 0 -- -- 83
2020-01-22 23:00:00 5.5 7 Norte 14 Norte 0 -- -- 82
2020-01-22 22:00:00 6.5 4 Norte 18 Nordeste 0 -- -- 79
2020-01-22 21:00:00 6.9 11 Nordeste 22 Nordeste 0 -- -- 80
2020-01-22 20:00:00 7.2 11 Nordeste 23 Nordeste 0 -- -- 77
2020-01-22 19:00:00 7.9 10 Nordeste 21 Nordeste 0 -- -- 75
2020-01-22 18:00:00 9.3 2 Nordeste 13 Este 0 -- -- 78
2020-01-22 17:00:00 9.9 7 Este 20 Sudeste 1.2 -- -- 76
2020-01-22 16:00:00 11.3 6 Nordeste 19 Nordeste 0 -- -- 62
2020-01-22 15:00:00 11.6 14 Este 32 Nordeste 0 -- -- 61
2020-01-22 14:00:00 11.8 12 Este 28 Este 0 -- -- 61
2020-01-22 13:00:00 11.4 14 Este 24 Este 0 -- -- 65
2020-01-22 12:00:00 8.8 9 Norte 15 Norte 0 -- -- 74
2020-01-22 11:00:00 6.9 7 Nordeste 18 Nordeste 0 -- -- 79
2020-01-22 10:00:00 6.1 11 Nordeste 22 Nordeste 0.2 -- -- 82
2020-01-22 09:00:00 5.9 11 Nordeste 21 Nordeste 0.2 -- -- 80
2020-01-22 08:00:00 5.6 6 Nordeste 21 Nordeste 0 -- -- 82
2020-01-22 07:00:00 5.9 10 Nordeste 23 Nordeste 0 -- -- 77
2020-01-22 06:00:00 5.8 15 Norte 27 Norte 0 -- -- 77
2020-01-22 05:00:00 5.8 14 Norte 23 Nordeste 0 -- -- 78
2020-01-22 04:00:00 5.9 12 Norte 22 Nordeste 0 -- -- 79
2020-01-22 03:00:00 5.8 13 Norte 22 Norte 0 -- -- 80
2020-01-22 02:00:00 5.9 17 Norte 28 Norte 0 -- -- 80
2020-01-22 01:00:00 5.9 16 Nordeste 29 Nordeste 0 -- -- 79
2020-01-22 00:00:00 6.1 17 Nordeste 28 Nordeste 0 -- -- 79
2020-01-21 23:00:00 6.1 13 Nordeste 22 Nordeste 0 -- -- 80
2020-01-21 22:00:00 6.2 10 Norte 31 Norte 0 -- -- 79
2020-01-21 21:00:00 6.1 17 Norte 30 Norte 0 -- -- 79
2020-01-21 20:00:00 6 16 Nordeste 32 Este 0 -- -- 78
2020-01-21 19:00:00 5.8 12 Nordeste 27 Nordeste 0 -- -- 80
2020-01-21 18:00:00 5.8 13 Nordeste 29 Nordeste 0 -- -- 81
2020-01-21 17:00:00 5.6 6 Nordeste 23 Norte 0.8 -- -- 85
2020-01-21 16:00:00 7.6 15 Nordeste 34 Norte 0 -- -- 71
2020-01-21 15:00:00 8.4 21 Norte 39 Norte 0 -- -- 61
2020-01-21 14:00:00 8.1 21 Norte 35 Norte 0 -- -- 63
2020-01-21 13:00:00 7.6 20 Norte 33 Norte 0 -- -- 63
2020-01-21 12:00:00 6.7 17 Nordeste 37 Norte 0 -- -- 66
2020-01-21 11:00:00 6.4 22 Norte 39 Nordeste 0 -- -- 66
2020-01-21 10:00:00 5.7 9 Nordeste 40 Norte 0 -- -- 67
2020-01-21 09:00:00 5.6 24 Norte 40 Norte 0 -- -- 65
2020-01-21 08:00:00 5.5 21 Norte 38 Norte 0 -- -- 65
2020-01-21 07:00:00 5 23 Norte 38 Norte 0 -- -- 66
2020-01-21 06:00:00 4.7 19 Norte 45 Norte 0 -- -- 67
2020-01-21 05:00:00 4.6 27 Norte 54 Norte 0 -- -- 66
2020-01-21 04:00:00 5.1 25 Norte 41 Norte 0 -- -- 63
2020-01-21 03:00:00 5.5 29 Nordeste 48 Norte 0 -- -- 61
2020-01-21 02:00:00 5.3 20 Norte 43 Norte 0 -- -- 62
2020-01-21 01:00:00 5.4 25 Norte 38 Nordeste 0 -- -- 61
2020-01-21 00:00:00 5.7 21 Norte 45 Nordeste 0 -- -- 61
2020-01-20 23:00:00 5.3 21 Nordeste 40 Nordeste 0 -- -- 61
2020-01-20 22:00:00 5.2 18 Nordeste 38 Norte 0 -- -- 60
2020-01-20 21:00:00 5.5 19 Nordeste 46 Nordeste 0 -- -- 60
2020-01-20 20:00:00 5.7 21 Nordeste 38 Norte 0 -- -- 58
2020-01-20 19:00:00 5.9 21 Nordeste 47 Nordeste 0 -- -- 58
2020-01-20 18:00:00 6.4 20 Nordeste 43 Nordeste 0 -- -- 56
2020-01-20 17:00:00 6.5 23 Nordeste 43 Norte 0 -- -- 51
2020-01-20 16:00:00 6.7 22 Nordeste 41 Nordeste 0 -- -- 50
2020-01-20 15:00:00 6.7 23 Nordeste 46 Nordeste 0 -- -- 49
2020-01-20 14:00:00 6.4 24 Nordeste 45 Norte 0 -- -- 46
2020-01-20 13:00:00 6.3 23 Nordeste 42 Nordeste 0 -- -- 42
2020-01-20 12:00:00 5.2 25 Nordeste 49 Nordeste 0 -- -- 40
2020-01-20 11:00:00 3.7 30 Nordeste 58 Nordeste 0 -- -- 40
2020-01-20 10:00:00 2.9 32 Norte 60 Nordeste 0 -- -- 42
2020-01-20 09:00:00 2.8 38 Norte 62 Norte 0 -- -- 43
2020-01-20 08:00:00 2.9 31 Norte 60 Norte 0 -- -- 43
2020-01-20 07:00:00 3.2 32 Nordeste 55 Nordeste 0 -- -- 41
2020-01-20 06:00:00 3.1 30 Norte 56 Norte 0 -- -- 42
2020-01-20 05:00:00 3.1 32 Nordeste 57 Nordeste 0 -- -- 43
2020-01-20 04:00:00 3.4 36 Norte 57 Norte 0 -- -- 43
2020-01-20 03:00:00 3.4 27 Nordeste 52 Nordeste 0 -- -- 44
2020-01-20 02:00:00 3.5 25 Nordeste 50 Nordeste 0 -- -- 44
2020-01-20 01:00:00 3.7 24 Nordeste 55 Nordeste 0 -- -- 45
2020-01-20 00:00:00 4.1 32 Nordeste 66 Nordeste 0 -- -- 43
2020-01-19 23:00:00 4.5 32 Nordeste 64 Norte 0 -- -- 41
2020-01-19 22:00:00 4.8 33 Norte 58 Norte 0 -- -- 40
2020-01-19 21:00:00 5.5 26 Nordeste 51 Norte 0 -- -- 37
2020-01-19 20:00:00 6.2 25 Norte 43 Norte 0 -- -- 35
2020-01-19 19:00:00 7.5 26 Nordeste 65 Norte 0 -- -- 31
2020-01-19 18:00:00 8.7 42 Norte 72 Norte 0 -- -- 29
2020-01-19 17:00:00 9.5 31 Norte 63 Nordeste 0 -- -- 32
2020-01-19 16:00:00 9.3 30 Nordeste 61 Norte 0 -- -- 37
2020-01-19 15:00:00 9.2 36 Nordeste 65 Norte 0 -- -- 35
2020-01-19 14:00:00 8.9 26 Nordeste 62 Nordeste 0 -- -- 44
2020-01-19 13:00:00 8.7 35 Norte 61 Norte 0 -- -- 50
2020-01-19 12:00:00 8 31 Norte 60 Norte 0 -- -- 60
2020-01-19 11:00:00 7.1 13 Norte 32 Norte 0 -- -- 80
2020-01-19 10:00:00 6.7 13 Norte 35 Norte 0.2 -- -- 81
2020-01-19 09:00:00 3.6 0 Calma 4 Sudoeste 0 -- -- 95
2020-01-19 08:00:00 3.6 0 Calma 8 Sudeste 0.6 -- -- 95
2020-01-19 07:00:00 2.5 3 Norte 5 Oeste 0 -- -- 94
2020-01-19 06:00:00 3.2 3 Oeste 7 Sudeste 0 -- -- 94
2020-01-19 05:00:00 3.5 3 Sudoeste 8 Este 0 -- -- 93
2020-01-19 04:00:00 3.6 2 Sudeste 14 Este 0 -- -- 92
2020-01-19 03:00:00 4.2 6 Nordeste 10 Nordeste 0 -- -- 90
2020-01-19 02:00:00 5.6 7 Oeste 9 Oeste 0 -- -- 85
2020-01-19 01:00:00 7.2 7 Noroeste 14 Oeste 0 -- -- 81
2020-01-19 00:00:00 8 4 Oeste 26 Noroeste 0 -- -- 89
2020-01-18 23:00:00 8 5 Sudeste 10 Norte 0 -- -- 94
2020-01-18 22:00:00 9 5 Oeste 18 Oeste 0 -- -- 95
2020-01-18 21:00:00 8.9 9 Sudoeste 21 Sudoeste 0.2 -- -- 95
2020-01-18 20:00:00 9 4 Oeste 15 Sur 0.6 -- -- 95
2020-01-18 19:00:00 9.1 9 Sur 17 Sur 0.2 -- -- 94
2020-01-18 18:00:00 9.3 9 Sudoeste 20 Sudoeste 0.2 -- -- 93
2020-01-18 17:00:00 10 12 Sudoeste 17 Sudoeste 0 -- -- 90
2020-01-18 16:00:00 9.8 6 Sur 10 Sur 0 -- -- 91
2020-01-18 15:00:00 9.5 6 Sudoeste 11 Sudoeste 0 -- -- 90
2020-01-18 14:00:00 9.2 6 Sudoeste 15 Sur 0 -- -- 90
2020-01-18 13:00:00 8.8 7 Sur 13 Sur 0 -- -- 91
2020-01-18 12:00:00 7.7 3 Oeste 6 Oeste 0 -- -- 93
2020-01-18 11:00:00 6.5 0 Calma 3 Este 0.2 -- -- 95
2020-01-18 10:00:00 5.4 0 Calma 3 Este 0 -- -- 94
2020-01-18 09:00:00 5.1 0 Calma 6 Noroeste 0 -- -- 94
2020-01-18 08:00:00 4.9 3 Sudoeste 5 Nordeste 0.4 -- -- 93
2020-01-18 07:00:00 4.6 3 Oeste 9 Sudeste 0 -- -- 92
2020-01-18 06:00:00 4.7 3 Sudeste 9 Nordeste 0 -- -- 92
2020-01-18 05:00:00 4.4 3 Nordeste 8 Nordeste 0 -- -- 92
2020-01-18 04:00:00 4.4 3 Nordeste 9 Nordeste 0 -- -- 93
2020-01-18 03:00:00 4.4 0 Calma 5 Este 0 -- -- 93
2020-01-18 02:00:00 4.5 0 Calma 6 Norte 0 -- -- 92
2020-01-18 01:00:00 4.6 0 Calma 5 Sur 0 -- -- 91
2020-01-18 00:00:00 5.4 4 Oeste 6 Oeste 0 -- -- 91
2020-01-17 23:00:00 5.1 2 Sur 8 Oeste 0 -- -- 89
2020-01-17 22:00:00 6.3 4 Oeste 11 Oeste 0 -- -- 88
2020-01-17 21:00:00 6.1 5 Sudeste 9 Sudeste 0 -- -- 85
2020-01-17 20:00:00 7.3 4 Oeste 13 Este 0 -- -- 79
2020-01-17 19:00:00 8.8 4 Sudoeste 12 Sudoeste 0 -- -- 78
2020-01-17 18:00:00 11.4 9 Sudoeste 19 Sudoeste 0 -- -- 69
2020-01-17 17:00:00 13 13 Sudoeste 21 Sudoeste 0 -- -- 62
2020-01-17 16:00:00 13.1 10 Sudoeste 27 Oeste 0 -- -- 65
2020-01-17 15:00:00 12.5 16 Sudoeste 29 Sudoeste 0 -- -- 65
2020-01-17 14:00:00 12.4 20 Sudoeste 30 Oeste 0 -- -- 71
2020-01-17 13:00:00 10.9 17 Oeste 32 Oeste 0 -- -- 77
2020-01-17 12:00:00 10.8 18 Sudoeste 29 Sudoeste 0 -- -- 78
2020-01-17 11:00:00 8.2 9 Oeste 17 Sudoeste 0 -- -- 87
2020-01-17 10:00:00 6.6 6 Sur 11 Sudoeste 0 -- -- 91
2020-01-17 09:00:00 4.6 6 Oeste 10 Sudoeste 0 -- -- 92
2020-01-17 08:00:00 4.1 8 Sudoeste 12 Sudoeste 0 -- -- 90
2020-01-17 07:00:00 5.1 6 Oeste 8 Oeste 0 -- -- 89
2020-01-17 06:00:00 3.9 3 Oeste 7 Sur 0 -- -- 90
2020-01-17 05:00:00 3.9 0 Calma 5 Nordeste 0 -- -- 83
2020-01-17 04:00:00 5.5 0 Calma 5 Sur 0 -- -- 82
2020-01-17 03:00:00 6.2 3 Sur 8 Sur 0 -- -- 77
2020-01-17 02:00:00 7.2 8 Sur 12 Sur 0 -- -- 74
2020-01-17 01:00:00 7.3 7 Sudoeste 18 Oeste 0 -- -- 73
2020-01-17 00:00:00 7.2 9 Sudoeste 13 Sudoeste 0 -- -- 72
2020-01-16 23:00:00 6.5 8 Sudoeste 9 Sudoeste 0 -- -- 78
2020-01-16 22:00:00 7.7 2 Sur 4 Sudoeste 0 -- -- 77
2020-01-16 21:00:00 8.1 2 Oeste 8 Sudoeste 0 -- -- 81
2020-01-16 20:00:00 8.7 2 Sur 4 Oeste 0 -- -- 79
2020-01-16 19:00:00 9.9 0 Calma 7 Sur 0 -- -- 74
2020-01-16 18:00:00 12.8 3 Sudoeste 12 Sur 0 -- -- 66
2020-01-16 17:00:00 14.4 10 Sur 18 Sudoeste 0 -- -- 60
2020-01-16 16:00:00 14.8 11 Sudoeste 17 Sudoeste 0 -- -- 61
2020-01-16 15:00:00 14.2 5 Sur 16 Sur 0 -- -- 67
2020-01-16 14:00:00 13 4 Sudoeste 15 Sudoeste 0 -- -- 71
2020-01-16 13:00:00 10.7 3 Sudoeste 10 Oeste 0 -- -- 78
2020-01-16 12:00:00 10.2 6 Sudoeste 9 Sur 0 -- -- 81
2020-01-16 11:00:00 8.3 3 Este 5 Este 0 -- -- 89
2020-01-16 10:00:00 6.8 0 Calma 5 Este 0 -- -- 91
2020-01-16 09:00:00 6.4 3 Este 5 Este 0 -- -- 92
2020-01-16 08:00:00 5.9 0 Calma 6 Nordeste 0 -- -- 90
2020-01-16 07:00:00 6.4 2 Norte 6 Este 0 -- -- 90
2020-01-16 06:00:00 6.2 2 Este 4 Nordeste 0 -- -- 91
2020-01-16 05:00:00 5.9 0 Calma 0 Calma 0 -- -- 90
2020-01-16 04:00:00 6.2 0 Calma 4 Este 0 -- -- 88
2020-01-16 03:00:00 6.7 4 Este 8 Este 0 -- -- 88
2020-01-16 02:00:00 6.5 2 Este 5 Este 0 -- -- 89
2020-01-16 01:00:00 6.5 0 Calma 3 Este 0 -- -- 88
2020-01-16 00:00:00 6.8 2 Nordeste 3 Nordeste 0 -- -- 87
2020-01-15 23:00:00 7.3 3 Nordeste 10 Este 0 -- -- 85
2020-01-15 22:00:00 7.4 0 Calma 6 Este 0 -- -- 87
2020-01-15 21:00:00 7.7 0 Calma 7 Nordeste 0 -- -- 85
2020-01-15 20:00:00 7.7 0 Calma 4 Noroeste 0 -- -- 85
2020-01-15 19:00:00 8 2 Norte 5 Norte 0 -- -- 84
2020-01-15 18:00:00 8.5 0 Calma 3 Nordeste 0 -- -- 82
2020-01-15 17:00:00 9 0 Calma 4 Norte 0 -- -- 79
2020-01-15 16:00:00 8.9 3 Oeste 5 Oeste 0 -- -- 78
2020-01-15 15:00:00 8.3 0 Calma 4 Este 0 -- -- 79
2020-01-15 14:00:00 7.4 2 Nordeste 6 Este 0 -- -- 81
2020-01-15 13:00:00 6.5 3 Nordeste 6 Este 0 -- -- 84
2020-01-15 12:00:00 5.2 3 Este 6 Este 0 -- -- 89
2020-01-15 11:00:00 3.9 0 Calma 6 Nordeste 0 -- -- 93
2020-01-15 10:00:00 1.9 0 Calma 7 Noroeste 0 -- -- 94
2020-01-15 09:00:00 0.3 2 Nordeste 6 Este 0 -- -- 93
2020-01-15 08:00:00 0 0 Calma 5 Este 0 -- -- 93
2020-01-15 07:00:00 0.5 0 Calma 13 Noroeste 0 -- -- 92
2020-01-15 06:00:00 0.7 3 Sudeste 7 Sudeste 0 -- -- 90
2020-01-15 05:00:00 1.7 0 Calma 5 Este 0 -- -- 88
2020-01-15 04:00:00 2.9 0 Calma 4 Este 0 -- -- 87
2020-01-15 03:00:00 3.5 2 Nordeste 6 Este 0 -- -- 86
2020-01-15 02:00:00 4.2 4 Este 6 Este 0 -- -- 84
2020-01-15 01:00:00 4.1 2 Este 8 Este 0 -- -- 86
2020-01-15 00:00:00 4.2 3 Nordeste 9 Este 0 -- -- 83
2020-01-14 23:00:00 3.8 2 Nordeste 8 Este 0 -- -- 85
2020-01-14 22:00:00 3.5 0 Calma 6 Este 0 -- -- 82
2020-01-14 21:00:00 4.5 2 Sudeste 12 Nordeste 0 -- -- 84
2020-01-14 20:00:00 4.1 0 Calma 4 Norte 0 -- -- 81
2020-01-14 19:00:00 5.3 0 Calma 4 Sur 0 -- -- 75
2020-01-14 18:00:00 7.9 4 Sudoeste 12 Sudoeste 0 -- -- 68
2020-01-14 17:00:00 10 9 Sudoeste 14 Sudoeste 0 -- -- 62
2020-01-14 16:00:00 9.9 9 Sur 14 Sudoeste 0 -- -- 63
2020-01-14 15:00:00 9.3 8 Sudoeste 16 Sudoeste 0 -- -- 64
2020-01-14 14:00:00 8.2 6 Sudoeste 10 Sudoeste 0 -- -- 68
2020-01-14 13:00:00 5.6 2 Sudoeste 5 Sudoeste 0 -- -- 72
2020-01-14 12:00:00 3.7 0 Calma 4 Este 0 -- -- 78
2020-01-14 11:00:00 0.8 0 Calma 3 Este 0 -- -- 88
2020-01-14 10:00:00 -2 2 Este 5 Este 0 -- -- 94
2020-01-14 09:00:00 -3.4 3 Nordeste 5 Nordeste 0 -- -- 94
2020-01-14 08:00:00 -3.4 3 Este 6 Nordeste 0 -- -- 94
2020-01-14 07:00:00 -3.4 2 Este 6 Este 0 -- -- 93
2020-01-14 06:00:00 -3.1 4 Nordeste 6 Nordeste 0 -- -- 93
2020-01-14 05:00:00 -2.9 4 Este 6 Nordeste 0 -- -- 93
2020-01-14 04:00:00 -3 2 Este 3 Este 0 -- -- 93
2020-01-14 03:00:00 -2.5 2 Este 2 Este 0 -- -- 92
2020-01-14 02:00:00 -2.4 0 Calma 4 Norte 0 -- -- 91
2020-01-14 01:00:00 -1.5 3 Este 5 Este 0 -- -- 91
2020-01-14 00:00:00 -1.5 0 Calma 3 Sudeste 0 -- -- 90
2020-01-13 23:00:00 -0.8 0 Calma 3 Sudeste 0 -- -- 88
2020-01-13 22:00:00 -0.3 0 Calma 4 Sudeste 0 -- -- 87
2020-01-13 21:00:00 1.3 3 Sudeste 4 Sudeste 0 -- -- 82
2020-01-13 20:00:00 2.3 0 Calma 5 Oeste 0 -- -- 81
2020-01-13 19:00:00 4.1 0 Calma 5 Sudeste 0 -- -- 73
2020-01-13 18:00:00 7.5 2 Sudoeste 10 Sudoeste 0 -- -- 67
2020-01-13 17:00:00 9 8 Sur 17 Sur 0 -- -- 61
2020-01-13 16:00:00 9 8 Sudoeste 13 Sur 0 -- -- 61
2020-01-13 15:00:00 8.9 3 Sur 6 Sur 0 -- -- 62
2020-01-13 14:00:00 7.4 3 Sudeste 8 Oeste 0 -- -- 67
2020-01-13 13:00:00 5.2 2 Oeste 5 Noroeste 0 -- -- 74
2020-01-13 12:00:00 2.6 3 Sudeste 7 Nordeste 0 -- -- 81
2020-01-13 11:00:00 0.3 2 Este 8 Nordeste 0 -- -- 87
2020-01-13 10:00:00 -1.9 4 Este 6 Este 0 -- -- 91
2020-01-13 09:00:00 -3.4 3 Este 5 Nordeste 0 -- -- 92
2020-01-13 08:00:00 -3.5 2 Este 4 Este 0 -- -- 92
2020-01-13 07:00:00 -3.6 3 Nordeste 6 Nordeste 0 -- -- 91
2020-01-13 06:00:00 -3.5 4 Nordeste 6 Nordeste 0 -- -- 91
2020-01-13 05:00:00 -3.2 0 Calma 6 Nordeste 0 -- -- 90
2020-01-13 04:00:00 -2.7 0 Calma 6 Este 0 -- -- 89
2020-01-13 03:00:00 -2.2 3 Nordeste 7 Nordeste 0 -- -- 89
2020-01-13 02:00:00 -2.1 5 Nordeste 7 Este 0 -- -- 88
2020-01-13 01:00:00 -1.4 2 Nordeste 8 Nordeste 0 -- -- 88
2020-01-13 00:00:00 -1.3 3 Este 7 Este 0 -- -- 87
2020-01-12 23:00:00 -0.7 0 Calma 8 Este 0 -- -- 83
2020-01-12 22:00:00 0.4 3 Este 9 Nordeste 0 -- -- 83
2020-01-12 21:00:00 0.7 3 Nordeste 4 Nordeste 0 -- -- 82
2020-01-12 20:00:00 2.3 3 Nordeste 5 Nordeste 0 -- -- 78
2020-01-12 19:00:00 4.5 2 Norte 5 Sudeste 0 -- -- 71
2020-01-12 18:00:00 9.9 0 Calma 8 Sudoeste 0 -- -- 56
2020-01-12 17:00:00 10.8 4 Sur 8 Sudoeste 0 -- -- 52
2020-01-12 16:00:00 10.5 0 Calma 8 Sudoeste 0 -- -- 49
2020-01-12 15:00:00 9.4 3 Sur 8 Oeste 0 -- -- 50
2020-01-12 14:00:00 8.5 0 Calma 5 Sudoeste 0 -- -- 61
2020-01-12 13:00:00 6.6 0 Calma 4 Sur 0 -- -- 69
2020-01-12 12:00:00 3.8 0 Calma 8 Este 0 -- -- 73
2020-01-12 11:00:00 0.8 6 Este 10 Nordeste 0 -- -- 77
2020-01-12 10:00:00 -1.2 2 Este 4 Este 0 -- -- 88
2020-01-12 09:00:00 -3.6 3 Nordeste 6 Nordeste 0 -- -- 92
2020-01-12 08:00:00 -3.6 2 Este 5 Nordeste 0 -- -- 91
2020-01-12 07:00:00 -3.3 3 Nordeste 5 Nordeste 0 -- -- 90
2020-01-12 06:00:00 -3 3 Nordeste 5 Este 0 -- -- 91
2020-01-12 05:00:00 -2.7 3 Este 5 Este 0 -- -- 90
2020-01-12 04:00:00 -2.4 2 Este 7 Este 0 -- -- 90
2020-01-12 03:00:00 -1.8 4 Nordeste 6 Este 0 -- -- 89
2020-01-12 02:00:00 -1.4 4 Nordeste 7 Nordeste 0 -- -- 89
2020-01-12 01:00:00 -0.9 4 Nordeste 9 Este 0 -- -- 89
2020-01-12 00:00:00 -0.5 3 Este 6 Este 0 -- -- 87
2020-01-11 23:00:00 0 3 Nordeste 6 Nordeste 0 -- -- 87
2020-01-11 22:00:00 0.3 0 Calma 2 Nordeste 0 -- -- 85
2020-01-11 21:00:00 1.7 0 Calma 3 Nordeste 0 -- -- 79
2020-01-11 20:00:00 3.8 2 Nordeste 3 Sudeste 0 -- -- 74
2020-01-11 19:00:00 5.9 3 Sudeste 5 Sur 0 -- -- 66
2020-01-11 18:00:00 10.9 4 Sur 8 Sudoeste 0 -- -- 52
2020-01-11 17:00:00 12.1 5 Sudoeste 7 Sudoeste 0 -- -- 47
2020-01-11 16:00:00 12.3 3 Oeste 8 Oeste 0 -- -- 48
2020-01-11 15:00:00 11.3 2 Sudeste 10 Sur 0 -- -- 51
2020-01-11 14:00:00 10.2 5 Sur 10 Sur 0 -- -- 56
2020-01-11 13:00:00 8.8 3 Sur 6 Sudoeste 0 -- -- 59
2020-01-11 12:00:00 6.6 0 Calma 12 Nordeste 0 -- -- 66
2020-01-11 11:00:00 3.8 4 Norte 9 Norte 0 -- -- 74
2020-01-11 10:00:00 1.1 7 Este 10 Este 0 -- -- 84
2020-01-11 09:00:00 -1.4 5 Este 9 Nordeste 0 -- -- 90
2020-01-11 08:00:00 -1.3 4 Este 11 Este 0 -- -- 89
2020-01-11 07:00:00 -1 6 Nordeste 10 Este 0 -- -- 89
2020-01-11 06:00:00 -0.7 4 Este 10 Este 0 -- -- 88
2020-01-11 05:00:00 -0.6 6 Nordeste 8 Nordeste 0 -- -- 89
2020-01-11 04:00:00 -0.6 0 Calma 7 Nordeste 0 -- -- 87
2020-01-11 03:00:00 0.1 4 Este 9 Nordeste 0 -- -- 87
2020-01-11 02:00:00 0.3 0 Calma 7 Sudeste 0 -- -- 85
2020-01-11 01:00:00 1 4 Sudeste 13 Norte 0 -- -- 83
2020-01-11 00:00:00 1.9 7 Norte 12 Norte 0 -- -- 81
2020-01-10 23:00:00 3.6 3 Nordeste 11 Nordeste 0 -- -- 73
2020-01-10 22:00:00 5.2 9 Norte 19 Norte 0 -- -- 71
2020-01-10 21:00:00 7.1 14 Norte 24 Norte 0 -- -- 64
2020-01-10 20:00:00 6.8 7 Nordeste 22 Norte 0 -- -- 63
2020-01-10 19:00:00 8.6 14 Norte 21 Norte 0 -- -- 57
2020-01-10 18:00:00 10.3 13 Norte 26 Nordeste 0 -- -- 49
2020-01-10 17:00:00 11.5 13 Nordeste 30 Nordeste 0 -- -- 46
2020-01-10 16:00:00 11.9 17 Nordeste 31 Nordeste 0 -- -- 43
2020-01-10 15:00:00 12.2 12 Nordeste 25 Norte 0 -- -- 44
2020-01-10 14:00:00 11.8 15 Norte 32 Norte 0 -- -- 44
2020-01-10 13:00:00 10.8 14 Norte 24 Norte 0 -- -- 56
2020-01-10 12:00:00 8.7 7 Nordeste 18 Norte 0 -- -- 67
2020-01-10 11:00:00 6.4 11 Nordeste 18 Nordeste 0 -- -- 77
2020-01-10 10:00:00 1.1 3 Oeste 7 Este 0 -- -- 96
2020-01-10 09:00:00 -1 3 Sudeste 7 Sudeste 0 -- -- 95
2020-01-10 08:00:00 -0.5 3 Este 10 Nordeste 0 -- -- 94
2020-01-10 07:00:00 -0.8 0 Calma 5 Nordeste 0 -- -- 94
2020-01-10 06:00:00 -0.1 0 Calma 4 Nordeste 0 -- -- 94
2020-01-10 05:00:00 0 0 Calma 5 Nordeste 0 -- -- 93
2020-01-10 04:00:00 0.6 0 Calma 5 Este 0 -- -- 93
2020-01-10 03:00:00 1.9 3 Nordeste 6 Nordeste 0 -- -- 93
2020-01-10 02:00:00 2.4 4 Oeste 14 Sur 0 -- -- 92
2020-01-10 01:00:00 3.1 0 Calma 6 Sur 0 -- -- 90
2020-01-10 00:00:00 4.6 4 Sudoeste 13 Sudoeste 0 -- -- 89
2020-01-09 23:00:00 5.3 6 Oeste 11 Oeste 0 -- -- 89
2020-01-09 22:00:00 5.6 6 Sudoeste 8 Sudoeste 0 -- -- 86
2020-01-09 21:00:00 7.5 3 Sudoeste 5 Sudeste 0 -- -- 82
2020-01-09 20:00:00 7.4 2 Oeste 5 Sur 0 -- -- 81
2020-01-09 19:00:00 7.7 4 Sur 8 Sur 0 -- -- 76
2020-01-09 18:00:00 10.8 8 Sur 13 Sudoeste 0 -- -- 67
2020-01-09 17:00:00 12.7 9 Sudoeste 16 Oeste 0 -- -- 63
2020-01-09 16:00:00 13 12 Sudoeste 17 Sudoeste 0 -- -- 60
2020-01-09 15:00:00 12.8 9 Sudoeste 15 Sudoeste 0 -- -- 60
2020-01-09 14:00:00 12.2 3 Sudoeste 10 Noroeste 0 -- -- 58
2020-01-09 13:00:00 10.8 3 Noroeste 6 Noroeste 0 -- -- 67
2020-01-09 12:00:00 7.6 3 Nordeste 13 Este 0 -- -- 73
2020-01-09 11:00:00 5.7 2 Sudeste 7 Este 0 -- -- 81
2020-01-09 10:00:00 2.3 6 Nordeste 10 Este 0 -- -- 86
2020-01-09 09:00:00 0.6 5 Nordeste 10 Este 0 -- -- 91
2020-01-09 08:00:00 0.3 0 Calma 9 Nordeste 0 -- -- 90
2020-01-09 07:00:00 0.5 4 Nordeste 8 Este 0 -- -- 90
2020-01-09 06:00:00 0.8 4 Nordeste 10 Este 0 -- -- 90
2020-01-09 05:00:00 1 4 Nordeste 8 Nordeste 0 -- -- 89
2020-01-09 04:00:00 1.2 2 Nordeste 7 Nordeste 0 -- -- 87
2020-01-09 03:00:00 1.8 2 Este 9 Nordeste 0 -- -- 84
2020-01-09 02:00:00 2.7 5 Nordeste 11 Nordeste 0 -- -- 85
2020-01-09 01:00:00 1.9 0 Calma 3 Este 0 -- -- 85
2020-01-09 00:00:00 2.5 0 Calma 5 Nordeste 0 -- -- 83
2020-01-08 23:00:00 3.9 3 Nordeste 5 Nordeste 0 -- -- 79
2020-01-08 22:00:00 5.3 3 Nordeste 8 Este 0 -- -- 76
2020-01-08 21:00:00 5.7 3 Nordeste 7 Nordeste 0 -- -- 74
2020-01-08 20:00:00 6.7 5 Nordeste 6 Este 0 -- -- 68
2020-01-08 19:00:00 8.7 3 Este 9 Sur 0 -- -- 63
2020-01-08 18:00:00 14.2 2 Sur 4 Sudoeste 0 -- -- 46
2020-01-08 17:00:00 16.5 0 Calma 5 Sudoeste 0 -- -- 35
2020-01-08 16:00:00 15.6 3 Oeste 6 Noroeste 0 -- -- 39
2020-01-08 15:00:00 14.6 3 Sur 5 Oeste 0 -- -- 43
2020-01-08 14:00:00 12.3 0 Calma 4 Sudeste 0 -- -- 48
2020-01-08 13:00:00 9.8 2 Sur 6 Este 0 -- -- 57
2020-01-08 12:00:00 6.7 5 Este 9 Este 0 -- -- 68
2020-01-08 11:00:00 4.2 6 Nordeste 10 Este 0 -- -- 77
2020-01-08 10:00:00 1.6 4 Este 8 Nordeste 0 -- -- 88
2020-01-08 09:00:00 -1 3 Nordeste 8 Nordeste 0 -- -- 92
2020-01-08 08:00:00 -1.1 3 Este 5 Este 0 -- -- 93
2020-01-08 07:00:00 -1.1 3 Nordeste 5 Este 0 -- -- 92
2020-01-08 06:00:00 -1.1 4 Este 6 Este 0 -- -- 92
2020-01-08 05:00:00 -1.1 0 Calma 4 Nordeste 0 -- -- 91
2020-01-08 04:00:00 -0.7 2 Nordeste 6 Nordeste 0 -- -- 91
2020-01-08 03:00:00 -0.4 4 Este 8 Este 0 -- -- 91
2020-01-08 02:00:00 -0.5 0 Calma 5 Nordeste 0 -- -- 90
2020-01-08 01:00:00 -0.2 2 Este 9 Nordeste 0 -- -- 88
2020-01-08 00:00:00 1.2 4 Nordeste 8 Nordeste 0 -- -- 87
2020-01-07 23:00:00 0.9 0 Calma 6 Este 0 -- -- 86
2020-01-07 22:00:00 1.7 3 Este 5 Nordeste 0 -- -- 86
2020-01-07 21:00:00 2.7 0 Calma 5 Nordeste 0 -- -- 82
2020-01-07 20:00:00 4.7 3 Nordeste 5 Este 0 -- -- 78
2020-01-07 19:00:00 7.4 2 Nordeste 3 Norte 0 -- -- 68
2020-01-07 18:00:00 12.6 0 Calma 6 Sur 0 -- -- 59
2020-01-07 17:00:00 14.1 0 Calma 6 Oeste 0 -- -- 53
2020-01-07 16:00:00 13.1 4 Sudoeste 6 Sudoeste 0 -- -- 54
2020-01-07 15:00:00 11.9 0 Calma 7 Sudoeste 0 -- -- 55
2020-01-07 14:00:00 10.3 4 Sudoeste 8 Oeste 0 -- -- 57
2020-01-07 13:00:00 8.5 2 Sudeste 5 Norte 0 -- -- 64
2020-01-07 12:00:00 5.3 0 Calma 4 Este 0 -- -- 74
2020-01-07 11:00:00 3.1 3 Este 6 Este 0 -- -- 80
2020-01-07 10:00:00 0.5 3 Nordeste 7 Este 0 -- -- 92
2020-01-07 09:00:00 -1.6 3 Nordeste 5 Nordeste 0 -- -- 94
2020-01-07 08:00:00 -2.4 0 Calma 3 Nordeste 0 -- -- 93
2020-01-07 07:00:00 -1.7 2 Nordeste 6 Este 0 -- -- 93
2020-01-07 06:00:00 -1.1 2 Nordeste 7 Nordeste 0 -- -- 93
2020-01-07 05:00:00 -1.1 3 Este 7 Nordeste 0 -- -- 93
2020-01-07 04:00:00 -0.7 3 Nordeste 6 Este 0 -- -- 93
2020-01-07 03:00:00 -0.1 4 Este 7 Nordeste 0 -- -- 92
2020-01-07 02:00:00 0.4 2 Nordeste 8 Este 0 -- -- 91
2020-01-07 01:00:00 0.9 5 Este 9 Nordeste 0 -- -- 91
2020-01-07 00:00:00 1.6 2 Nordeste 7 Este 0 -- -- 90
2020-01-06 23:00:00 1.8 4 Nordeste 8 Nordeste 0 -- -- 89
2020-01-06 22:00:00 2.4 0 Calma 8 Este 0 -- -- 85
2020-01-06 21:00:00 3.4 4 Nordeste 6 Nordeste 0 -- -- 84
2020-01-06 20:00:00 4.6 3 Este 5 Norte 0 -- -- 80
2020-01-06 19:00:00 7 2 Norte 6 Sudeste 0 -- -- 74
2020-01-06 18:00:00 11.4 5 Sudoeste 8 Sur 0 -- -- 60
2020-01-06 17:00:00 13.7 4 Sur 10 Sudoeste 0 -- -- 54
2020-01-06 16:00:00 12.7 6 Oeste 10 Sudoeste 0 -- -- 54
2020-01-06 15:00:00 12.1 4 Sudoeste 9 Sudoeste 0 -- -- 56
2020-01-06 14:00:00 10.6 3 Sudoeste 7 Sudoeste 0 -- -- 59
2020-01-06 13:00:00 8.3 0 Calma 6 Este 0 -- -- 70
2020-01-06 12:00:00 5.8 5 Este 10 Este 0 -- -- 75
2020-01-06 11:00:00 2.8 5 Nordeste 10 Nordeste 0 -- -- 87
2020-01-06 10:00:00 0.5 5 Nordeste 9 Nordeste 0 -- -- 94